sensor_id;sensor_type;location;lat;lon;timestamp;P1;durP1;ratioP1;P2;durP2;ratioP2
59938;SDS011;45801;51.810;19.444;2023-04-23T00:01:06;14.00;;;6.90;;
59938;SDS011;45801;51.810;19.444;2023-04-23T00:03:37;13.90;;;7.50;;
59938;SDS011;45801;51.810;19.444;2023-04-23T00:06:06;12.20;;;7.40;;
59938;SDS011;45801;51.810;19.444;2023-04-23T00:08:38;11.40;;;7.20;;
59938;SDS011;45801;51.810;19.444;2023-04-23T00:11:06;13.30;;;7.10;;
59938;SDS011;45801;51.810;19.444;2023-04-23T00:13:34;12.20;;;7.20;;
59938;SDS011;45801;51.810;19.444;2023-04-23T00:16:01;13.30;;;6.90;;
59938;SDS011;45801;51.810;19.444;2023-04-23T00:18:28;12.60;;;7.40;;
59938;SDS011;45801;51.810;19.444;2023-04-23T00:20:54;13.10;;;6.80;;
59938;SDS011;45801;51.810;19.444;2023-04-23T00:23:21;13.40;;;7.20;;
59938;SDS011;45801;51.810;19.444;2023-04-23T00:25:48;12.30;;;7.30;;
59938;SDS011;45801;51.810;19.444;2023-04-23T00:28:15;12.90;;;7.90;;
59938;SDS011;45801;51.810;19.444;2023-04-23T00:30:41;13.70;;;7.90;;
59938;SDS011;45801;51.810;19.444;2023-04-23T00:33:08;12.60;;;7.20;;
59938;SDS011;45801;51.810;19.444;2023-04-23T00:35:34;13.30;;;7.40;;
59938;SDS011;45801;51.810;19.444;2023-04-23T00:38:01;12.80;;;7.90;;
59938;SDS011;45801;51.810;19.444;2023-04-23T00:40:27;14.70;;;8.00;;
59938;SDS011;45801;51.810;19.444;2023-04-23T00:42:53;13.60;;;7.20;;
59938;SDS011;45801;51.810;19.444;2023-04-23T00:45:21;14.80;;;8.00;;
59938;SDS011;45801;51.810;19.444;2023-04-23T00:47:48;14.40;;;8.20;;
59938;SDS011;45801;51.810;19.444;2023-04-23T00:50:15;12.10;;;7.80;;
59938;SDS011;45801;51.810;19.444;2023-04-23T00:52:41;12.70;;;7.80;;
59938;SDS011;45801;51.810;19.444;2023-04-23T00:55:08;13.80;;;7.50;;
59938;SDS011;45801;51.810;19.444;2023-04-23T00:57:34;14.30;;;8.30;;
59938;SDS011;45801;51.810;19.444;2023-04-23T01:00:03;13.00;;;7.30;;
59938;SDS011;45801;51.810;19.444;2023-04-23T01:02:32;15.00;;;8.30;;
59938;SDS011;45801;51.810;19.444;2023-04-23T01:05:02;14.60;;;8.10;;
59938;SDS011;45801;51.810;19.444;2023-04-23T01:07:33;15.40;;;8.20;;
59938;SDS011;45801;51.810;19.444;2023-04-23T01:10:00;13.10;;;8.00;;
59938;SDS011;45801;51.810;19.444;2023-04-23T01:12:28;14.60;;;8.00;;
59938;SDS011;45801;51.810;19.444;2023-04-23T01:14:56;14.40;;;8.10;;
59938;SDS011;45801;51.810;19.444;2023-04-23T01:17:23;14.80;;;8.10;;
59938;SDS011;45801;51.810;19.444;2023-04-23T01:19:52;13.10;;;7.20;;
59938;SDS011;45801;51.810;19.444;2023-04-23T01:22:18;15.00;;;8.20;;
59938;SDS011;45801;51.810;19.444;2023-04-23T01:24:45;13.40;;;7.30;;
59938;SDS011;45801;51.810;19.444;2023-04-23T01:27:12;14.10;;;8.30;;
59938;SDS011;45801;51.810;19.444;2023-04-23T01:29:39;12.60;;;7.30;;
59938;SDS011;45801;51.810;19.444;2023-04-23T01:32:07;16.00;;;8.40;;
59938;SDS011;45801;51.810;19.444;2023-04-23T01:34:34;13.10;;;7.80;;
59938;SDS011;45801;51.810;19.444;2023-04-23T01:37:02;14.50;;;7.40;;
59938;SDS011;45801;51.810;19.444;2023-04-23T01:39:29;11.60;;;7.70;;
59938;SDS011;45801;51.810;19.444;2023-04-23T01:41:56;13.90;;;8.00;;
59938;SDS011;45801;51.810;19.444;2023-04-23T01:44:23;13.70;;;7.80;;
59938;SDS011;45801;51.810;19.444;2023-04-23T01:46:50;12.00;;;7.70;;
59938;SDS011;45801;51.810;19.444;2023-04-23T01:49:16;14.30;;;8.20;;
59938;SDS011;45801;51.810;19.444;2023-04-23T01:51:43;13.60;;;8.00;;
59938;SDS011;45801;51.810;19.444;2023-04-23T01:54:09;13.50;;;8.20;;
59938;SDS011;45801;51.810;19.444;2023-04-23T01:56:36;13.30;;;8.20;;
59938;SDS011;45801;51.810;19.444;2023-04-23T01:59:03;14.10;;;7.50;;
59938;SDS011;45801;51.810;19.444;2023-04-23T02:01:45;14.00;;;7.90;;
59938;SDS011;45801;51.810;19.444;2023-04-23T02:04:12;11.90;;;7.70;;
59938;SDS011;45801;51.810;19.444;2023-04-23T02:06:41;15.60;;;8.30;;
59938;SDS011;45801;51.810;19.444;2023-04-23T02:09:10;14.20;;;8.40;;
59938;SDS011;45801;51.810;19.444;2023-04-23T02:11:36;12.60;;;8.00;;
59938;SDS011;45801;51.810;19.444;2023-04-23T02:14:03;14.20;;;8.90;;
59938;SDS011;45801;51.810;19.444;2023-04-23T02:16:31;14.50;;;8.20;;
59938;SDS011;45801;51.810;19.444;2023-04-23T02:19:00;14.00;;;8.20;;
59938;SDS011;45801;51.810;19.444;2023-04-23T02:21:27;15.10;;;8.20;;
59938;SDS011;45801;51.810;19.444;2023-04-23T02:23:54;13.60;;;8.70;;
59938;SDS011;45801;51.810;19.444;2023-04-23T02:26:21;13.10;;;7.90;;
59938;SDS011;45801;51.810;19.444;2023-04-23T02:28:48;14.30;;;8.20;;
59938;SDS011;45801;51.810;19.444;2023-04-23T02:31:15;14.20;;;8.40;;
59938;SDS011;45801;51.810;19.444;2023-04-23T02:33:43;14.10;;;8.60;;
59938;SDS011;45801;51.810;19.444;2023-04-23T02:36:09;13.70;;;8.70;;
59938;SDS011;45801;51.810;19.444;2023-04-23T02:38:36;15.10;;;8.40;;
59938;SDS011;45801;51.810;19.444;2023-04-23T02:41:06;14.50;;;8.00;;
59938;SDS011;45801;51.810;19.444;2023-04-23T02:43:33;14.50;;;8.20;;
59938;SDS011;45801;51.810;19.444;2023-04-23T02:46:00;15.70;;;9.30;;
59938;SDS011;45801;51.810;19.444;2023-04-23T02:48:34;15.10;;;8.70;;
59938;SDS011;45801;51.810;19.444;2023-04-23T02:51:02;13.90;;;8.70;;
59938;SDS011;45801;51.810;19.444;2023-04-23T02:53:29;13.70;;;8.50;;
59938;SDS011;45801;51.810;19.444;2023-04-23T02:55:55;12.90;;;8.90;;
59938;SDS011;45801;51.810;19.444;2023-04-23T02:58:22;12.60;;;8.60;;
59938;SDS011;45801;51.810;19.444;2023-04-23T03:00:48;13.20;;;8.90;;
59938;SDS011;45801;51.810;19.444;2023-04-23T03:03:15;14.80;;;8.90;;
59938;SDS011;45801;51.810;19.444;2023-04-23T03:05:42;14.90;;;8.70;;
59938;SDS011;45801;51.810;19.444;2023-04-23T03:08:08;13.40;;;8.70;;
59938;SDS011;45801;51.810;19.444;2023-04-23T03:10:34;14.20;;;9.30;;
59938;SDS011;45801;51.810;19.444;2023-04-23T03:13:01;17.20;;;9.50;;
59938;SDS011;45801;51.810;19.444;2023-04-23T03:15:27;17.20;;;8.90;;
59938;SDS011;45801;51.810;19.444;2023-04-23T03:17:54;14.40;;;9.10;;
59938;SDS011;45801;51.810;19.444;2023-04-23T03:20:21;16.40;;;9.80;;
59938;SDS011;45801;51.810;19.444;2023-04-23T03:22:47;15.40;;;9.80;;
59938;SDS011;45801;51.810;19.444;2023-04-23T03:25:14;14.90;;;9.70;;
59938;SDS011;45801;51.810;19.444;2023-04-23T03:27:41;16.00;;;9.80;;
59938;SDS011;45801;51.810;19.444;2023-04-23T03:30:09;14.10;;;9.00;;
59938;SDS011;45801;51.810;19.444;2023-04-23T03:32:36;16.00;;;9.30;;
59938;SDS011;45801;51.810;19.444;2023-04-23T03:35:04;15.10;;;10.60;;
59938;SDS011;45801;51.810;19.444;2023-04-23T03:37:30;16.10;;;10.00;;
59938;SDS011;45801;51.810;19.444;2023-04-23T03:39:57;14.80;;;9.10;;
59938;SDS011;45801;51.810;19.444;2023-04-23T03:42:23;14.10;;;9.80;;
59938;SDS011;45801;51.810;19.444;2023-04-23T03:44:50;14.50;;;9.90;;
59938;SDS011;45801;51.810;19.444;2023-04-23T03:47:16;14.30;;;9.40;;
59938;SDS011;45801;51.810;19.444;2023-04-23T03:49:43;15.70;;;10.40;;
59938;SDS011;45801;51.810;19.444;2023-04-23T03:52:10;14.60;;;9.70;;
59938;SDS011;45801;51.810;19.444;2023-04-23T03:54:36;15.00;;;10.20;;
59938;SDS011;45801;51.810;19.444;2023-04-23T03:57:03;15.00;;;10.10;;
59938;SDS011;45801;51.810;19.444;2023-04-23T03:59:29;16.70;;;10.10;;
59938;SDS011;45801;51.810;19.444;2023-04-23T04:01:56;16.40;;;10.10;;
59938;SDS011;45801;51.810;19.444;2023-04-23T04:04:23;14.40;;;9.80;;
59938;SDS011;45801;51.810;19.444;2023-04-23T04:06:50;17.50;;;10.60;;
59938;SDS011;45801;51.810;19.444;2023-04-23T04:09:16;16.90;;;10.60;;
59938;SDS011;45801;51.810;19.444;2023-04-23T04:11:43;15.70;;;10.00;;
59938;SDS011;45801;51.810;19.444;2023-04-23T04:14:09;14.90;;;10.00;;
59938;SDS011;45801;51.810;19.444;2023-04-23T04:16:36;14.40;;;9.70;;
59938;SDS011;45801;51.810;19.444;2023-04-23T04:19:02;18.80;;;10.40;;
59938;SDS011;45801;51.810;19.444;2023-04-23T04:21:28;16.40;;;9.90;;
59938;SDS011;45801;51.810;19.444;2023-04-23T04:23:55;16.10;;;10.10;;
59938;SDS011;45801;51.810;19.444;2023-04-23T04:26:22;18.10;;;10.30;;
59938;SDS011;45801;51.810;19.444;2023-04-23T04:28:48;15.60;;;9.50;;
59938;SDS011;45801;51.810;19.444;2023-04-23T04:31:16;15.60;;;9.60;;
59938;SDS011;45801;51.810;19.444;2023-04-23T04:33:42;17.10;;;10.20;;
59938;SDS011;45801;51.810;19.444;2023-04-23T04:36:11;14.90;;;9.50;;
59938;SDS011;45801;51.810;19.444;2023-04-23T04:38:38;15.40;;;9.70;;
59938;SDS011;45801;51.810;19.444;2023-04-23T04:41:05;14.00;;;9.30;;
59938;SDS011;45801;51.810;19.444;2023-04-23T04:43:32;15.00;;;9.50;;
59938;SDS011;45801;51.810;19.444;2023-04-23T04:45:59;14.10;;;9.20;;
59938;SDS011;45801;51.810;19.444;2023-04-23T04:48:27;15.10;;;10.20;;
59938;SDS011;45801;51.810;19.444;2023-04-23T04:50:53;17.70;;;9.60;;
59938;SDS011;45801;51.810;19.444;2023-04-23T04:53:20;14.00;;;9.30;;
59938;SDS011;45801;51.810;19.444;2023-04-23T04:55:47;14.80;;;10.00;;
59938;SDS011;45801;51.810;19.444;2023-04-23T04:58:14;14.60;;;9.60;;
59938;SDS011;45801;51.810;19.444;2023-04-23T05:00:40;14.90;;;9.70;;
59938;SDS011;45801;51.810;19.444;2023-04-23T05:03:07;15.60;;;9.40;;
59938;SDS011;45801;51.810;19.444;2023-04-23T05:05:34;13.80;;;9.10;;
59938;SDS011;45801;51.810;19.444;2023-04-23T05:08:00;15.50;;;9.60;;
59938;SDS011;45801;51.810;19.444;2023-04-23T05:10:30;14.80;;;10.00;;
59938;SDS011;45801;51.810;19.444;2023-04-23T05:12:56;14.70;;;8.80;;
59938;SDS011;45801;51.810;19.444;2023-04-23T05:15:23;15.60;;;9.60;;
59938;SDS011;45801;51.810;19.444;2023-04-23T05:17:49;13.30;;;8.80;;
59938;SDS011;45801;51.810;19.444;2023-04-23T05:20:18;14.10;;;9.10;;
59938;SDS011;45801;51.810;19.444;2023-04-23T05:22:46;14.60;;;9.70;;
59938;SDS011;45801;51.810;19.444;2023-04-23T05:25:13;14.30;;;9.60;;
59938;SDS011;45801;51.810;19.444;2023-04-23T05:27:40;14.00;;;9.60;;
59938;SDS011;45801;51.810;19.444;2023-04-23T05:30:07;14.10;;;9.20;;
59938;SDS011;45801;51.810;19.444;2023-04-23T05:32:35;13.70;;;9.10;;
59938;SDS011;45801;51.810;19.444;2023-04-23T05:35:02;14.00;;;8.80;;
59938;SDS011;45801;51.810;19.444;2023-04-23T05:37:29;14.50;;;9.10;;
59938;SDS011;45801;51.810;19.444;2023-04-23T05:39:56;14.20;;;9.90;;
59938;SDS011;45801;51.810;19.444;2023-04-23T05:42:23;14.30;;;10.00;;
59938;SDS011;45801;51.810;19.444;2023-04-23T05:44:49;16.90;;;10.40;;
59938;SDS011;45801;51.810;19.444;2023-04-23T05:47:19;18.60;;;10.30;;
59938;SDS011;45801;51.810;19.444;2023-04-23T05:49:47;15.80;;;9.70;;
59938;SDS011;45801;51.810;19.444;2023-04-23T05:52:14;15.30;;;9.20;;
59938;SDS011;45801;51.810;19.444;2023-04-23T05:54:41;14.00;;;9.70;;
59938;SDS011;45801;51.810;19.444;2023-04-23T05:57:07;14.20;;;9.30;;
59938;SDS011;45801;51.810;19.444;2023-04-23T05:59:34;17.00;;;9.40;;
59938;SDS011;45801;51.810;19.444;2023-04-23T06:02:01;15.30;;;9.30;;
59938;SDS011;45801;51.810;19.444;2023-04-23T06:04:27;15.80;;;9.30;;
59938;SDS011;45801;51.810;19.444;2023-04-23T06:06:54;15.30;;;9.40;;
59938;SDS011;45801;51.810;19.444;2023-04-23T06:09:20;15.30;;;9.50;;
59938;SDS011;45801;51.810;19.444;2023-04-23T06:11:47;16.00;;;9.60;;
59938;SDS011;45801;51.810;19.444;2023-04-23T06:14:15;15.20;;;9.20;;
59938;SDS011;45801;51.810;19.444;2023-04-23T06:16:42;14.30;;;9.20;;
59938;SDS011;45801;51.810;19.444;2023-04-23T06:19:08;16.30;;;9.60;;
59938;SDS011;45801;51.810;19.444;2023-04-23T06:21:35;14.80;;;9.20;;
59938;SDS011;45801;51.810;19.444;2023-04-23T06:24:02;15.50;;;9.50;;
59938;SDS011;45801;51.810;19.444;2023-04-23T06:26:30;12.90;;;8.80;;
59938;SDS011;45801;51.810;19.444;2023-04-23T06:28:56;14.10;;;9.40;;
59938;SDS011;45801;51.810;19.444;2023-04-23T06:31:23;15.00;;;8.90;;
59938;SDS011;45801;51.810;19.444;2023-04-23T06:33:49;14.50;;;9.40;;
59938;SDS011;45801;51.810;19.444;2023-04-23T06:36:17;16.50;;;9.10;;
59938;SDS011;45801;51.810;19.444;2023-04-23T06:38:43;13.60;;;8.90;;
59938;SDS011;45801;51.810;19.444;2023-04-23T06:41:10;15.70;;;9.20;;
59938;SDS011;45801;51.810;19.444;2023-04-23T06:43:38;14.00;;;8.60;;
59938;SDS011;45801;51.810;19.444;2023-04-23T06:46:04;16.30;;;9.30;;
59938;SDS011;45801;51.810;19.444;2023-04-23T06:48:31;13.90;;;9.10;;
59938;SDS011;45801;51.810;19.444;2023-04-23T06:50:57;15.60;;;10.30;;
59938;SDS011;45801;51.810;19.444;2023-04-23T06:53:27;15.20;;;9.20;;
59938;SDS011;45801;51.810;19.444;2023-04-23T06:55:54;13.70;;;8.80;;
59938;SDS011;45801;51.810;19.444;2023-04-23T06:58:20;17.20;;;10.30;;
59938;SDS011;45801;51.810;19.444;2023-04-23T07:00:48;15.90;;;9.50;;
59938;SDS011;45801;51.810;19.444;2023-04-23T07:03:15;13.90;;;9.40;;
59938;SDS011;45801;51.810;19.444;2023-04-23T07:05:41;14.90;;;9.70;;
59938;SDS011;45801;51.810;19.444;2023-04-23T07:08:08;14.60;;;9.00;;
59938;SDS011;45801;51.810;19.444;2023-04-23T07:10:34;15.20;;;8.90;;
59938;SDS011;45801;51.810;19.444;2023-04-23T07:13:01;13.10;;;8.30;;
59938;SDS011;45801;51.810;19.444;2023-04-23T07:15:27;14.40;;;8.70;;
59938;SDS011;45801;51.810;19.444;2023-04-23T07:17:54;14.40;;;9.60;;
59938;SDS011;45801;51.810;19.444;2023-04-23T07:20:20;16.00;;;9.50;;
59938;SDS011;45801;51.810;19.444;2023-04-23T07:22:47;14.50;;;8.30;;
59938;SDS011;45801;51.810;19.444;2023-04-23T07:25:13;14.50;;;9.20;;
59938;SDS011;45801;51.810;19.444;2023-04-23T07:27:40;15.70;;;8.60;;
59938;SDS011;45801;51.810;19.444;2023-04-23T07:30:06;14.30;;;8.30;;
59938;SDS011;45801;51.810;19.444;2023-04-23T07:32:34;15.90;;;8.60;;
59938;SDS011;45801;51.810;19.444;2023-04-23T07:35:00;13.10;;;8.50;;
59938;SDS011;45801;51.810;19.444;2023-04-23T07:37:27;15.30;;;9.30;;
59938;SDS011;45801;51.810;19.444;2023-04-23T07:39:53;12.20;;;7.80;;
59938;SDS011;45801;51.810;19.444;2023-04-23T07:42:20;13.00;;;8.80;;
59938;SDS011;45801;51.810;19.444;2023-04-23T07:44:46;13.00;;;8.10;;
59938;SDS011;45801;51.810;19.444;2023-04-23T07:47:13;13.10;;;8.50;;
59938;SDS011;45801;51.810;19.444;2023-04-23T07:49:39;14.40;;;8.70;;
59938;SDS011;45801;51.810;19.444;2023-04-23T07:52:06;13.40;;;8.20;;
59938;SDS011;45801;51.810;19.444;2023-04-23T07:54:33;13.80;;;8.80;;
59938;SDS011;45801;51.810;19.444;2023-04-23T07:56:59;12.60;;;7.90;;
59938;SDS011;45801;51.810;19.444;2023-04-23T07:59:26;12.80;;;7.80;;
59938;SDS011;45801;51.810;19.444;2023-04-23T08:01:52;13.00;;;8.20;;
59938;SDS011;45801;51.810;19.444;2023-04-23T08:04:19;12.20;;;6.80;;
59938;SDS011;45801;51.810;19.444;2023-04-23T08:06:45;13.60;;;7.40;;
59938;SDS011;45801;51.810;19.444;2023-04-23T08:09:12;14.10;;;8.20;;
59938;SDS011;45801;51.810;19.444;2023-04-23T08:11:40;16.40;;;8.30;;
59938;SDS011;45801;51.810;19.444;2023-04-23T08:14:06;13.70;;;8.00;;
59938;SDS011;45801;51.810;19.444;2023-04-23T08:16:33;13.40;;;8.60;;
59938;SDS011;45801;51.810;19.444;2023-04-23T08:18:59;14.20;;;8.70;;
59938;SDS011;45801;51.810;19.444;2023-04-23T08:21:26;12.80;;;7.70;;
59938;SDS011;45801;51.810;19.444;2023-04-23T08:23:54;14.50;;;7.90;;
59938;SDS011;45801;51.810;19.444;2023-04-23T08:26:20;10.90;;;6.40;;
59938;SDS011;45801;51.810;19.444;2023-04-23T08:28:47;11.80;;;7.10;;
59938;SDS011;45801;51.810;19.444;2023-04-23T08:31:13;12.10;;;6.90;;
59938;SDS011;45801;51.810;19.444;2023-04-23T08:33:39;12.00;;;7.00;;
59938;SDS011;45801;51.810;19.444;2023-04-23T08:36:06;13.50;;;6.70;;
59938;SDS011;45801;51.810;19.444;2023-04-23T08:38:33;12.50;;;6.70;;
59938;SDS011;45801;51.810;19.444;2023-04-23T08:41:00;10.20;;;6.30;;
59938;SDS011;45801;51.810;19.444;2023-04-23T08:43:37;13.70;;;8.10;;
59938;SDS011;45801;51.810;19.444;2023-04-23T08:46:10;12.30;;;7.50;;
59938;SDS011;45801;51.810;19.444;2023-04-23T08:48:39;9.80;;;6.30;;
59938;SDS011;45801;51.810;19.444;2023-04-23T08:51:08;11.00;;;6.10;;
59938;SDS011;45801;51.810;19.444;2023-04-23T08:53:36;11.70;;;6.60;;
59938;SDS011;45801;51.810;19.444;2023-04-23T08:56:04;13.90;;;7.30;;
59938;SDS011;45801;51.810;19.444;2023-04-23T08:58:32;10.50;;;6.50;;
59938;SDS011;45801;51.810;19.444;2023-04-23T09:01:00;13.00;;;6.40;;
59938;SDS011;45801;51.810;19.444;2023-04-23T09:03:26;11.30;;;6.30;;
59938;SDS011;45801;51.810;19.444;2023-04-23T09:05:54;13.50;;;7.20;;
59938;SDS011;45801;51.810;19.444;2023-04-23T09:08:21;11.20;;;6.00;;
59938;SDS011;45801;51.810;19.444;2023-04-23T09:10:47;11.10;;;6.30;;
59938;SDS011;45801;51.810;19.444;2023-04-23T09:13:15;12.30;;;6.50;;
59938;SDS011;45801;51.810;19.444;2023-04-23T09:15:42;12.50;;;6.20;;
59938;SDS011;45801;51.810;19.444;2023-04-23T09:18:09;12.40;;;6.20;;
59938;SDS011;45801;51.810;19.444;2023-04-23T09:20:36;10.10;;;5.60;;
59938;SDS011;45801;51.810;19.444;2023-04-23T09:23:05;11.80;;;6.40;;
59938;SDS011;45801;51.810;19.444;2023-04-23T09:25:34;13.30;;;6.90;;
59938;SDS011;45801;51.810;19.444;2023-04-23T09:28:02;10.30;;;6.10;;
59938;SDS011;45801;51.810;19.444;2023-04-23T09:30:37;10.50;;;6.00;;
59938;SDS011;45801;51.810;19.444;2023-04-23T09:33:04;10.80;;;5.50;;
59938;SDS011;45801;51.810;19.444;2023-04-23T09:35:31;9.70;;;5.20;;
59938;SDS011;45801;51.810;19.444;2023-04-23T09:37:58;9.80;;;4.20;;
59938;SDS011;45801;51.810;19.444;2023-04-23T09:40:30;9.40;;;4.90;;
59938;SDS011;45801;51.810;19.444;2023-04-23T09:42:57;9.20;;;4.80;;
59938;SDS011;45801;51.810;19.444;2023-04-23T09:45:24;8.30;;;4.90;;
59938;SDS011;45801;51.810;19.444;2023-04-23T09:47:51;10.80;;;5.40;;
59938;SDS011;45801;51.810;19.444;2023-04-23T09:50:30;11.90;;;5.10;;
59938;SDS011;45801;51.810;19.444;2023-04-23T09:53:04;11.30;;;5.50;;
59938;SDS011;45801;51.810;19.444;2023-04-23T09:55:34;9.50;;;4.10;;
59938;SDS011;45801;51.810;19.444;2023-04-23T09:58:04;9.60;;;4.70;;
59938;SDS011;45801;51.810;19.444;2023-04-23T10:00:33;12.50;;;5.40;;
59938;SDS011;45801;51.810;19.444;2023-04-23T10:03:01;8.30;;;3.60;;
59938;SDS011;45801;51.810;19.444;2023-04-23T10:05:28;9.00;;;5.10;;
59938;SDS011;45801;51.810;19.444;2023-04-23T10:07:55;10.00;;;5.10;;
59938;SDS011;45801;51.810;19.444;2023-04-23T10:10:25;11.00;;;4.50;;
59938;SDS011;45801;51.810;19.444;2023-04-23T10:12:52;8.20;;;4.50;;
59938;SDS011;45801;51.810;19.444;2023-04-23T10:15:20;10.50;;;5.00;;
59938;SDS011;45801;51.810;19.444;2023-04-23T10:17:50;8.40;;;4.60;;
59938;SDS011;45801;51.810;19.444;2023-04-23T10:20:17;9.30;;;4.70;;
59938;SDS011;45801;51.810;19.444;2023-04-23T10:22:46;9.70;;;5.10;;
59938;SDS011;45801;51.810;19.444;2023-04-23T10:25:13;9.40;;;4.60;;
59938;SDS011;45801;51.810;19.444;2023-04-23T10:27:41;7.30;;;3.80;;
59938;SDS011;45801;51.810;19.444;2023-04-23T10:30:09;9.70;;;4.40;;
59938;SDS011;45801;51.810;19.444;2023-04-23T10:32:39;8.10;;;3.60;;
59938;SDS011;45801;51.810;19.444;2023-04-23T10:35:07;8.80;;;3.70;;
59938;SDS011;45801;51.810;19.444;2023-04-23T10:37:34;8.00;;;3.70;;
59938;SDS011;45801;51.810;19.444;2023-04-23T10:40:06;7.60;;;3.70;;
59938;SDS011;45801;51.810;19.444;2023-04-23T10:42:37;9.50;;;3.70;;
59938;SDS011;45801;51.810;19.444;2023-04-23T10:45:23;8.90;;;3.70;;
59938;SDS011;45801;51.810;19.444;2023-04-23T10:47:49;8.00;;;3.70;;
59938;SDS011;45801;51.810;19.444;2023-04-23T10:50:26;8.30;;;3.80;;
59938;SDS011;45801;51.810;19.444;2023-04-23T10:52:54;7.50;;;3.80;;
59938;SDS011;45801;51.810;19.444;2023-04-23T10:55:24;9.40;;;3.40;;
59938;SDS011;45801;51.810;19.444;2023-04-23T11:00:26;8.20;;;3.90;;
59938;SDS011;45801;51.810;19.444;2023-04-23T11:02:53;8.40;;;4.00;;
59938;SDS011;45801;51.810;19.444;2023-04-23T11:05:23;8.20;;;3.90;;
59938;SDS011;45801;51.810;19.444;2023-04-23T11:08:04;8.80;;;4.50;;
59938;SDS011;45801;51.810;19.444;2023-04-23T11:10:32;8.80;;;3.70;;
59938;SDS011;45801;51.810;19.444;2023-04-23T11:15:48;8.80;;;3.90;;
59938;SDS011;45801;51.810;19.444;2023-04-23T11:19:00;7.60;;;3.90;;
59938;SDS011;45801;51.810;19.444;2023-04-23T11:24:21;8.20;;;3.80;;
59938;SDS011;45801;51.810;19.444;2023-04-23T11:26:49;10.00;;;4.00;;
59938;SDS011;45801;51.810;19.444;2023-04-23T11:29:18;9.50;;;4.20;;
59938;SDS011;45801;51.810;19.444;2023-04-23T11:31:48;7.90;;;3.50;;
59938;SDS011;45801;51.810;19.444;2023-04-23T11:34:17;7.80;;;3.30;;
59938;SDS011;45801;51.810;19.444;2023-04-23T11:36:45;9.20;;;3.60;;
59938;SDS011;45801;51.810;19.444;2023-04-23T11:39:14;8.80;;;3.60;;
59938;SDS011;45801;51.810;19.444;2023-04-23T11:41:41;8.90;;;3.60;;
59938;SDS011;45801;51.810;19.444;2023-04-23T11:44:08;8.40;;;3.90;;
59938;SDS011;45801;51.810;19.444;2023-04-23T11:46:35;8.40;;;3.80;;
59938;SDS011;45801;51.810;19.444;2023-04-23T11:49:03;9.20;;;4.20;;
59938;SDS011;45801;51.810;19.444;2023-04-23T11:51:31;9.00;;;4.10;;
59938;SDS011;45801;51.810;19.444;2023-04-23T11:54:04;10.60;;;4.40;;
59938;SDS011;45801;51.810;19.444;2023-04-23T11:56:30;8.00;;;3.90;;
59938;SDS011;45801;51.810;19.444;2023-04-23T11:58:58;9.30;;;4.20;;
59938;SDS011;45801;51.810;19.444;2023-04-23T12:01:26;10.90;;;4.10;;
59938;SDS011;45801;51.810;19.444;2023-04-23T12:03:53;8.60;;;4.00;;
59938;SDS011;45801;51.810;19.444;2023-04-23T12:06:21;9.70;;;3.90;;
59938;SDS011;45801;51.810;19.444;2023-04-23T12:08:48;7.70;;;3.80;;
59938;SDS011;45801;51.810;19.444;2023-04-23T12:11:14;8.60;;;3.60;;
59938;SDS011;45801;51.810;19.444;2023-04-23T12:13:41;8.60;;;3.20;;
59938;SDS011;45801;51.810;19.444;2023-04-23T12:16:08;7.50;;;3.10;;
59938;SDS011;45801;51.810;19.444;2023-04-23T12:18:38;7.20;;;2.80;;
59938;SDS011;45801;51.810;19.444;2023-04-23T12:21:08;8.50;;;3.30;;
59938;SDS011;45801;51.810;19.444;2023-04-23T12:23:36;7.70;;;3.60;;
59938;SDS011;45801;51.810;19.444;2023-04-23T12:26:08;8.10;;;3.40;;
59938;SDS011;45801;51.810;19.444;2023-04-23T12:31:17;8.80;;;3.30;;
59938;SDS011;45801;51.810;19.444;2023-04-23T12:33:45;7.30;;;3.10;;
59938;SDS011;45801;51.810;19.444;2023-04-23T12:36:13;7.80;;;3.50;;
59938;SDS011;45801;51.810;19.444;2023-04-23T12:38:42;7.10;;;3.30;;
59938;SDS011;45801;51.810;19.444;2023-04-23T12:41:08;7.00;;;2.90;;
59938;SDS011;45801;51.810;19.444;2023-04-23T12:43:35;8.70;;;3.60;;
59938;SDS011;45801;51.810;19.444;2023-04-23T12:46:02;8.40;;;3.40;;
59938;SDS011;45801;51.810;19.444;2023-04-23T12:48:29;9.50;;;3.70;;
59938;SDS011;45801;51.810;19.444;2023-04-23T12:50:55;8.00;;;3.10;;
59938;SDS011;45801;51.810;19.444;2023-04-23T12:53:22;8.10;;;3.40;;
59938;SDS011;45801;51.810;19.444;2023-04-23T12:55:49;6.50;;;3.40;;
59938;SDS011;45801;51.810;19.444;2023-04-23T12:58:16;7.60;;;3.10;;
59938;SDS011;45801;51.810;19.444;2023-04-23T13:00:42;6.60;;;3.40;;
59938;SDS011;45801;51.810;19.444;2023-04-23T13:03:10;8.20;;;3.40;;
59938;SDS011;45801;51.810;19.444;2023-04-23T13:05:39;9.80;;;3.30;;
59938;SDS011;45801;51.810;19.444;2023-04-23T13:08:05;7.00;;;3.10;;
59938;SDS011;45801;51.810;19.444;2023-04-23T13:10:32;7.90;;;3.00;;
59938;SDS011;45801;51.810;19.444;2023-04-23T13:12:59;107.90;;;11.80;;
59938;SDS011;45801;51.810;19.444;2023-04-23T13:15:26;7.60;;;3.00;;
59938;SDS011;45801;51.810;19.444;2023-04-23T13:17:52;8.00;;;3.10;;
59938;SDS011;45801;51.810;19.444;2023-04-23T13:20:19;5.90;;;2.50;;
59938;SDS011;45801;51.810;19.444;2023-04-23T13:22:45;8.70;;;2.90;;
59938;SDS011;45801;51.810;19.444;2023-04-23T13:25:12;8.00;;;3.10;;
59938;SDS011;45801;51.810;19.444;2023-04-23T13:27:38;7.10;;;2.80;;
59938;SDS011;45801;51.810;19.444;2023-04-23T13:30:07;9.00;;;3.40;;
59938;SDS011;45801;51.810;19.444;2023-04-23T13:32:34;7.00;;;3.00;;
59938;SDS011;45801;51.810;19.444;2023-04-23T13:35:00;6.50;;;3.10;;
59938;SDS011;45801;51.810;19.444;2023-04-23T13:37:31;8.60;;;3.30;;
59938;SDS011;45801;51.810;19.444;2023-04-23T13:39:58;7.00;;;2.90;;
59938;SDS011;45801;51.810;19.444;2023-04-23T13:42:25;7.90;;;3.10;;
59938;SDS011;45801;51.810;19.444;2023-04-23T13:44:51;7.30;;;3.30;;
59938;SDS011;45801;51.810;19.444;2023-04-23T13:47:18;10.60;;;3.50;;
59938;SDS011;45801;51.810;19.444;2023-04-23T13:49:45;7.70;;;3.50;;
59938;SDS011;45801;51.810;19.444;2023-04-23T13:52:12;9.30;;;3.40;;
59938;SDS011;45801;51.810;19.444;2023-04-23T13:54:38;9.20;;;3.40;;
59938;SDS011;45801;51.810;19.444;2023-04-23T13:57:05;7.40;;;3.10;;
59938;SDS011;45801;51.810;19.444;2023-04-23T13:59:33;6.90;;;2.90;;
59938;SDS011;45801;51.810;19.444;2023-04-23T14:01:59;6.80;;;3.10;;
59938;SDS011;45801;51.810;19.444;2023-04-23T14:04:27;6.70;;;2.90;;
59938;SDS011;45801;51.810;19.444;2023-04-23T14:06:53;7.80;;;3.30;;
59938;SDS011;45801;51.810;19.444;2023-04-23T14:09:20;8.40;;;3.00;;
59938;SDS011;45801;51.810;19.444;2023-04-23T14:11:47;8.40;;;3.10;;
59938;SDS011;45801;51.810;19.444;2023-04-23T14:14:14;5.60;;;2.40;;
59938;SDS011;45801;51.810;19.444;2023-04-23T14:16:41;7.10;;;2.90;;
59938;SDS011;45801;51.810;19.444;2023-04-23T14:19:09;6.70;;;2.90;;
59938;SDS011;45801;51.810;19.444;2023-04-23T14:21:35;7.90;;;3.00;;
59938;SDS011;45801;51.810;19.444;2023-04-23T14:26:42;6.70;;;2.90;;
59938;SDS011;45801;51.810;19.444;2023-04-23T14:29:18;6.40;;;2.60;;
59938;SDS011;45801;51.810;19.444;2023-04-23T14:31:48;6.30;;;3.00;;
59938;SDS011;45801;51.810;19.444;2023-04-23T14:34:15;10.60;;;6.50;;
59938;SDS011;45801;51.810;19.444;2023-04-23T14:36:42;6.50;;;3.30;;
59938;SDS011;45801;51.810;19.444;2023-04-23T14:39:08;6.90;;;3.30;;